Time;durP1;ratioP1;P1;durP2;ratioP2;P2;SDS_P1;SDS_P2;PMS_P1;PMS_P2;Temp;Humidity;BMP_temperature;BMP_pressure;BME280_temperature;BME280_humidity;BME280_pressure;Samples;Min_cycle;Max_cycle;Signal;HPM_P1;HPM_P2
2023/03/01 00:00:52;;;;;;;4.85;3.72;;;27.30;62.40;;;;;;5143639;23;20012;-44
2023/03/01 00:03:14;;;;;;;5.68;3.83;;;27.30;61.90;;;;;;5142618;23;20015;-45
2023/03/01 00:05:37;;;;;;;6.10;3.38;;;27.20;61.90;;;;;;5144324;23;20470;-43
2023/03/01 00:07:59;;;;;;;5.40;3.47;;;27.30;61.20;;;;;;5143691;23;20012;-45
2023/03/01 00:10:22;;;;;;;6.32;3.17;;;27.30;59.30;;;;;;5142590;23;20021;-48
2023/03/01 00:12:44;;;;;;;8.18;3.72;;;27.20;58.30;;;;;;5142187;23;20415;-44
2023/03/01 00:15:07;;;;;;;4.07;3.00;;;27.20;56.50;;;;;;5144231;23;20518;-46
2023/03/01 00:17:30;;;;;;;6.82;3.50;;;27.20;55.80;;;;;;5142440;23;20024;-42
2023/03/01 00:19:52;;;;;;;5.38;3.10;;;27.20;54.40;;;;;;5145165;23;20188;-47
2023/03/01 00:22:15;;;;;;;4.68;3.13;;;27.20;54.60;;;;;;5145114;23;20347;-42
2023/03/01 00:24:37;;;;;;;5.38;3.10;;;27.10;53.70;;;;;;5142910;23;20013;-44
2023/03/01 00:26:59;;;;;;;4.47;3.00;;;27.20;53.80;;;;;;5143011;23;20107;-43
2023/03/01 00:29:24;;;;;;;4.38;2.83;;;27.10;53.30;;;;;;5143817;23;20016;-43
2023/03/01 00:31:46;;;;;;;3.78;2.95;;;27.20;54.50;;;;;;5144843;23;20027;-44
2023/03/01 00:34:09;;;;;;;3.92;2.65;;;27.20;54.90;;;;;;5144239;23;20021;-47
2023/03/01 00:36:37;;;;;;;4.20;2.95;;;27.20;55.40;;;;;;5144831;23;20023;-45
2023/03/01 00:39:00;;;;;;;4.05;2.97;;;27.20;55.20;;;;;;5133757;23;20016;-45
2023/03/01 00:41:22;;;;;;;5.22;2.97;;;27.20;54.00;;;;;;5132918;23;20069;-41
2023/03/01 00:43:45;;;;;;;4.93;2.95;;;27.20;53.50;;;;;;5142565;23;20013;-40
2023/03/01 00:46:11;;;;;;;4.07;2.92;;;27.30;53.80;;;;;;5142505;23;20067;-46
2023/03/01 00:48:34;;;;;;;4.63;3.05;;;27.20;54.60;;;;;;5142238;23;20353;-41
2023/03/01 00:50:56;;;;;;;3.77;2.80;;;27.30;55.70;;;;;;5142664;23;20348;-41
2023/03/01 00:53:18;;;;;;;3.58;2.72;;;27.20;56.10;;;;;;5141980;23;20329;-40
2023/03/01 00:55:41;;;;;;;3.60;2.70;;;27.20;56.00;;;;;;5140894;23;20024;-41
2023/03/01 00:58:03;;;;;;;5.72;2.83;;;27.20;55.70;;;;;;5142670;23;20362;-40
2023/03/01 01:00:27;;;;;;;4.45;2.95;;;27.30;56.00;;;;;;5141056;23;20056;-41
2023/03/01 01:02:50;;;;;;;4.57;2.85;;;27.30;56.40;;;;;;5139478;23;20043;-44
2023/03/01 01:05:12;;;;;;;6.87;3.30;;;27.30;57.40;;;;;;5141871;23;20019;-44
2023/03/01 01:07:35;;;;;;;5.27;2.80;;;27.30;58.00;;;;;;5140842;23;20584;-42
2023/03/01 01:09:58;;;;;;;5.60;2.72;;;27.40;58.80;;;;;;5141295;23;20027;-43
2023/03/01 01:12:20;;;;;;;3.72;2.65;;;27.40;59.00;;;;;;5140998;23;20070;-42
2023/03/01 01:14:42;;;;;;;4.60;2.75;;;27.40;59.10;;;;;;5141189;23;20105;-41
2023/03/01 01:17:05;;;;;;;3.95;2.50;;;27.40;59.40;;;;;;5139770;23;20104;-45
2023/03/01 01:19:28;;;;;;;3.40;2.45;;;27.40;60.10;;;;;;5140558;23;20410;-41
2023/03/01 01:21:51;;;;;;;3.42;2.40;;;27.50;59.50;;;;;;5142628;23;20008;-41
2023/03/01 01:24:13;;;;;;;5.70;2.40;;;27.50;59.80;;;;;;5140181;23;20020;-42
2023/03/01 01:26:36;;;;;;;3.13;2.30;;;27.50;60.10;;;;;;5133773;23;20017;-41
2023/03/01 01:28:59;;;;;;;3.58;2.30;;;27.50;60.20;;;;;;5143622;23;20336;-45
2023/03/01 01:31:25;;;;;;;4.30;2.47;;;27.50;60.50;;;;;;5142776;23;20073;-42
2023/03/01 01:33:48;;;;;;;3.83;2.30;;;27.50;60.60;;;;;;5141329;23;20529;-42
2023/03/01 01:36:11;;;;;;;4.20;2.05;;;27.50;60.70;;;;;;5140974;23;20012;-44
2023/03/01 01:38:34;;;;;;;5.82;2.60;;;27.50;60.70;;;;;;5142555;23;20017;-44
2023/03/01 01:40:57;;;;;;;3.25;1.83;;;27.60;61.00;;;;;;5142799;23;20016;-44
2023/03/01 01:43:28;;;;;;;3.60;1.80;;;27.60;61.00;;;;;;5140129;23;20415;-43
2023/03/01 01:45:54;;;;;;;3.55;1.90;;;27.60;60.80;;;;;;5141623;23;20422;-44
2023/03/01 01:48:40;;;;;;;2.63;1.65;;;27.60;60.80;;;;;;5141996;23;20074;-44
2023/03/01 01:51:02;;;;;;;5.53;2.03;;;27.60;60.70;;;;;;5140502;23;20055;-43
2023/03/01 01:53:26;;;;;;;3.27;1.80;;;27.60;60.50;;;;;;5141664;23;20044;-46
2023/03/01 01:55:57;;;;;;;4.53;2.00;;;27.60;60.50;;;;;;5142242;23;20028;-45
2023/03/01 01:58:22;;;;;;;2.42;1.63;;;27.60;60.50;;;;;;5132653;23;20040;-40
2023/03/01 02:00:45;;;;;;;3.42;1.88;;;27.60;60.40;;;;;;5141054;23;20017;-42
2023/03/01 02:03:18;;;;;;;2.50;1.80;;;27.60;60.40;;;;;;5139879;23;20017;-45
2023/03/01 02:06:14;;;;;;;2.17;1.73;;;27.60;60.50;;;;;;5142933;23;20238;-42
2023/03/01 02:08:39;;;;;;;2.70;1.80;;;27.60;60.50;;;;;;5142265;23;20502;-45
2023/03/01 02:11:04;;;;;;;2.90;2.17;;;27.60;60.50;;;;;;5144572;23;20317;-44
2023/03/01 02:13:27;;;;;;;3.35;1.83;;;27.70;60.50;;;;;;5141538;23;20328;-44
2023/03/01 02:15:50;;;;;;;3.13;1.90;;;27.60;60.30;;;;;;5140760;23;20592;-44
2023/03/01 02:18:16;;;;;;;3.13;1.98;;;27.70;60.40;;;;;;5142280;23;20016;-43
2023/03/01 02:21:04;;;;;;;3.25;1.60;;;27.70;60.10;;;;;;5142676;23;20405;-43
2023/03/01 02:23:28;;;;;;;2.22;1.45;;;27.70;59.90;;;;;;5143321;23;20067;-44
2023/03/01 02:26:06;;;;;;;3.55;1.75;;;27.70;59.90;;;;;;5141468;23;20084;-41
2023/03/01 02:28:33;;;;;;;2.80;1.90;;;27.70;59.60;;;;;;5134202;23;20022;-44
2023/03/01 02:33:39;;;;;;;2.13;1.70;;;27.70;59.50;;;;;;5139202;23;20028;-44
2023/03/01 02:36:09;;;;;;;4.55;1.77;;;27.70;59.40;;;;;;5145053;23;20070;-46
2023/03/01 02:38:33;;;;;;;3.10;1.77;;;27.80;59.60;;;;;;5141947;23;20062;-47
2023/03/01 02:40:56;;;;;;;4.30;1.58;;;27.80;59.00;;;;;;5143546;23;20013;-41
2023/03/01 02:43:22;;;;;;;8.38;2.20;;;27.80;59.40;;;;;;5142196;23;20199;-43
2023/03/01 02:45:53;;;;;;;2.85;1.60;;;27.80;59.60;;;;;;5144730;23;20017;-47
2023/03/01 02:48:15;;;;;;;1.70;1.13;;;27.90;59.80;;;;;;5142156;23;20020;-43
2023/03/01 02:51:03;;;;;;;4.05;1.73;;;27.90;60.00;;;;;;5135305;23;20013;-46
2023/03/01 02:53:53;;;;;;;3.13;1.42;;;28.00;60.00;;;;;;5142371;23;20008;-48
2023/03/01 02:56:16;;;;;;;2.17;1.55;;;28.00;59.60;;;;;;5135083;23;20039;-46
2023/03/01 02:58:45;;;;;;;1.88;1.13;;;28.00;59.30;;;;;;5143186;23;20017;-49
2023/03/01 03:01:09;;;;;;;2.60;1.50;;;28.10;59.10;;;;;;5135842;23;20414;-50
2023/03/01 03:03:30;;;;;;;;;;;28.10;58.30;;;;;;5135846;23;20421;-44
2023/03/01 03:05:53;;;;;;;2.75;1.48;;;28.10;58.00;;;;;;5144996;23;19911;-45
2023/03/01 03:08:23;;;;;;;2.72;1.30;;;28.10;57.00;;;;;;5144404;23;20066;-44
2023/03/01 03:10:46;;;;;;;2.30;1.25;;;28.00;56.20;;;;;;5136280;23;20075;-45
2023/03/01 03:13:11;;;;;;;1.70;1.13;;;27.70;55.70;;;;;;5136518;23;20024;-48
2023/03/01 03:15:38;;;;;;;3.15;1.70;;;27.50;54.90;;;;;;5142622;23;20454;-48
2023/03/01 03:18:00;;;;;;;1.52;1.30;;;27.20;54.10;;;;;;5143790;23;20025;-45
2023/03/01 03:20:26;;;;;;;2.05;1.50;;;26.90;53.80;;;;;;5143768;23;20051;-47
2023/03/01 03:22:52;;;;;;;2.40;1.20;;;26.70;53.70;;;;;;5142746;23;20095;-48
2023/03/01 03:25:14;;;;;;;1.48;1.35;;;26.50;53.50;;;;;;5142113;23;20047;-41
2023/03/01 03:27:38;;;;;;;2.92;1.40;;;26.30;53.80;;;;;;5142387;23;20347;-49
2023/03/01 03:30:00;;;;;;;;;;;26.20;53.70;;;;;;5143713;23;20017;-42
2023/03/01 03:32:22;;;;;;;1.45;1.30;;;26.10;54.10;;;;;;5143957;23;19904;-44
2023/03/01 03:34:45;;;;;;;1.92;1.25;;;26.00;53.90;;;;;;5133889;23;20277;-44
2023/03/01 03:38:01;;;;;;;1.47;1.23;;;25.80;53.80;;;;;;5143280;23;20024;-42
2023/03/01 03:39:54;;;;;;;2.03;1.33;;;25.70;54.10;;;;;;5135102;23;20246;-40
2023/03/01 03:42:16;;;;;;;3.03;1.00;;;25.60;54.30;;;;;;5135141;23;20422;-42
2023/03/01 03:44:42;;;;;;;1.88;1.25;;;25.40;54.60;;;;;;5142408;23;20013;-45
2023/03/01 03:47:04;;;;;;;1.75;1.20;;;25.30;54.80;;;;;;5142942;23;20173;-47
2023/03/01 03:49:27;;;;;;;1.58;1.08;;;25.30;55.00;;;;;;5142932;23;20402;-45
2023/03/01 03:51:49;;;;;;;2.05;1.10;;;25.20;55.00;;;;;;5140699;23;20012;-45
2023/03/01 03:54:12;;;;;;;1.42;1.10;;;25.20;55.20;;;;;;5140185;23;20083;-45
2023/03/01 03:56:34;;;;;;;1.63;1.00;;;25.10;54.90;;;;;;5132795;23;20688;-42
2023/03/01 03:58:57;;;;;;;1.42;0.60;;;25.00;54.70;;;;;;5131466;23;20103;-46
2023/03/01 04:01:19;;;;;;;1.55;0.90;;;24.90;54.60;;;;;;5138977;23;20529;-43
2023/03/01 04:03:46;;;;;;;2.13;0.88;;;24.80;55.00;;;;;;5140611;23;20043;-45
2023/03/01 04:06:08;;;;;;;0.68;0.68;;;24.80;55.30;;;;;;5132435;23;20574;-43
2023/03/01 04:08:31;;;;;;;0.63;0.60;;;24.60;55.00;;;;;;5139350;23;20776;-42
2023/03/01 04:11:25;;;;;;;0.88;0.60;;;24.50;55.10;;;;;;5139343;23;20059;-42
2023/03/01 04:13:43;;;;;;;1.63;0.75;;;24.40;55.40;;;;;;5127527;23;20484;-42
2023/03/01 04:16:05;;;;;;;1.38;1.00;;;24.30;55.10;;;;;;5138653;23;20019;-46
2023/03/01 04:18:28;;;;;;;1.05;0.80;;;24.30;55.30;;;;;;5139436;23;20032;-44
2023/03/01 04:20:55;;;;;;;1.38;0.68;;;24.20;55.30;;;;;;5140214;23;20433;-43
2023/03/01 04:23:20;;;;;;;0.90;0.60;;;24.10;55.30;;;;;;5129939;23;20020;-44
2023/03/01 04:25:45;;;;;;;1.50;0.52;;;24.00;55.50;;;;;;5127260;23;20093;-47
2023/03/01 04:28:08;;;;;;;1.10;0.80;;;23.90;55.50;;;;;;5136572;23;20190;-45
2023/03/01 04:30:35;;;;;;;1.08;0.60;;;23.80;55.60;;;;;;5137468;23;20473;-43
2023/03/01 04:32:57;;;;;;;0.95;0.55;;;23.80;55.40;;;;;;5138615;23;20131;-43
2023/03/01 04:35:20;;;;;;;1.27;0.65;;;23.70;55.50;;;;;;5137493;23;20163;-39
2023/03/01 04:37:44;;;;;;;1.40;0.73;;;23.70;55.80;;;;;;5137301;23;20402;-41
2023/03/01 04:40:24;;;;;;;;;;;23.60;55.60;;;;;;5129718;23;20013;-41
2023/03/01 04:42:47;;;;;;;1.25;0.68;;;23.60;55.80;;;;;;5138241;23;20330;-43
2023/03/01 04:45:15;;;;;;;2.67;1.10;;;23.50;55.80;;;;;;5127856;23;20017;-43
2023/03/01 04:47:38;;;;;;;2.28;0.80;;;23.50;56.10;;;;;;5139692;22;20035;-45
2023/03/01 04:50:00;;;;;;;1.27;0.77;;;23.50;56.90;;;;;;5141737;23;20016;-45
2023/03/01 04:52:23;;;;;;;1.65;0.70;;;23.60;56.60;;;;;;5142517;23;20016;-41
2023/03/01 04:54:46;;;;;;;1.03;0.77;;;23.70;56.40;;;;;;5132471;23;20025;-42
2023/03/01 04:57:08;;;;;;;1.67;0.90;;;23.80;55.80;;;;;;5143440;23;20048;-42
2023/03/01 04:59:30;;;;;;;0.90;0.70;;;23.90;55.60;;;;;;5143389;23;20047;-45
2023/03/01 05:01:55;;;;;;;1.23;0.65;;;23.90;55.30;;;;;;5141870;23;20031;-41
2023/03/01 05:04:18;;;;;;;1.08;0.60;;;23.90;55.30;;;;;;5138022;23;20059;-44
2023/03/01 05:06:41;;;;;;;1.38;0.60;;;23.90;55.00;;;;;;5141210;23;20013;-43
2023/03/01 05:09:03;;;;;;;0.98;0.60;;;24.00;55.00;;;;;;5138726;23;20070;-45
2023/03/01 05:11:27;;;;;;;1.48;0.85;;;23.90;55.00;;;;;;5140705;23;20024;-42
2023/03/01 05:13:54;;;;;;;1.20;0.80;;;23.90;54.70;;;;;;5140062;23;20269;-48
2023/03/01 05:16:17;;;;;;;1.88;0.90;;;24.00;54.80;;;;;;5139405;23;20013;-47
2023/03/01 05:18:41;;;;;;;1.13;0.65;;;24.00;54.70;;;;;;5139355;23;20020;-45
2023/03/01 05:21:09;;;;;;;1.50;1.00;;;24.00;54.80;;;;;;5128801;23;20012;-41
2023/03/01 05:23:33;;;;;;;1.42;0.90;;;24.00;54.80;;;;;;5140357;23;20051;-44
2023/03/01 05:26:02;;;;;;;2.22;0.82;;;24.00;54.70;;;;;;5138982;23;20029;-45
2023/03/01 05:28:24;;;;;;;2.92;1.20;;;24.00;54.60;;;;;;5131666;23;20116;-44
2023/03/01 05:30:47;;;;;;;2.72;1.30;;;24.00;54.60;;;;;;5139156;23;20020;-49
2023/03/01 05:33:13;;;;;;;1.90;1.02;;;24.00;55.40;;;;;;5137243;23;20031;-46
2023/03/01 05:35:35;;;;;;;1.27;0.90;;;24.10;54.60;;;;;;5131310;23;20357;-41
2023/03/01 05:37:57;;;;;;;1.05;0.80;;;24.10;54.30;;;;;;5140216;23;20046;-44
2023/03/01 05:40:23;;;;;;;2.63;0.90;;;24.10;54.30;;;;;;5140510;23;20096;-43
2023/03/01 05:42:53;;;;;;;3.08;1.30;;;24.10;54.20;;;;;;5133735;23;20024;-41
2023/03/01 05:45:17;;;;;;;1.98;1.05;;;24.10;54.30;;;;;;5142108;23;20048;-41
2023/03/01 05:47:44;;;;;;;2.55;1.00;;;24.10;54.00;;;;;;5128863;23;20013;-46
2023/03/01 05:50:07;;;;;;;1.42;0.90;;;24.10;54.20;;;;;;5139933;23;20071;-44
2023/03/01 05:52:29;;;;;;;3.30;1.48;;;24.10;54.20;;;;;;5128607;23;20012;-45
2023/03/01 05:54:52;;;;;;;3.50;1.63;;;24.10;54.20;;;;;;5139498;23;20028;-43
2023/03/01 05:57:14;;;;;;;4.30;2.00;;;24.10;54.20;;;;;;5139957;23;20008;-45
2023/03/01 05:59:36;;;;;;;2.15;1.40;;;24.10;53.80;;;;;;5142030;23;20043;-43
2023/03/01 06:01:59;;;;;;;4.65;2.08;;;24.20;53.90;;;;;;5141887;23;20079;-44
2023/03/01 06:04:21;;;;;;;3.17;1.48;;;24.20;53.70;;;;;;5142621;23;20016;-44
2023/03/01 06:06:44;;;;;;;2.70;1.25;;;24.20;53.70;;;;;;5142234;23;20351;-46
2023/03/01 06:09:09;;;;;;;3.50;1.50;;;24.20;53.40;;;;;;5141450;23;20021;-41
2023/03/01 06:11:31;;;;;;;2.85;1.60;;;24.20;53.30;;;;;;5140848;23;20099;-43
2023/03/01 06:13:53;;;;;;;3.50;1.60;;;24.20;53.20;;;;;;5140459;23;20016;-44
2023/03/01 06:16:16;;;;;;;3.45;1.42;;;24.30;53.20;;;;;;5142808;23;20027;-42
2023/03/01 06:18:39;;;;;;;2.92;1.40;;;24.30;53.10;;;;;;5133946;23;20031;-42
2023/03/01 06:21:01;;;;;;;4.38;1.73;;;24.30;53.30;;;;;;5137832;23;20021;-41
2023/03/01 06:23:24;;;;;;;2.47;1.30;;;24.30;53.30;;;;;;5141641;23;20009;-42
2023/03/01 06:25:46;;;;;;;2.50;1.20;;;24.30;53.10;;;;;;5139305;23;20024;-45
2023/03/01 06:28:09;;;;;;;2.53;1.45;;;24.30;53.20;;;;;;5140041;23;20372;-43
2023/03/01 06:30:31;;;;;;;1.73;1.05;;;24.30;53.20;;;;;;5142401;23;20454;-41
2023/03/01 06:33:00;;;;;;;3.60;1.65;;;24.30;53.40;;;;;;5130813;23;20320;-45
2023/03/01 06:35:22;;;;;;;3.00;1.50;;;24.30;53.30;;;;;;5142205;23;20047;-42
2023/03/01 06:37:47;;;;;;;3.78;1.52;;;24.30;53.30;;;;;;5145574;23;20024;-44
2023/03/01 06:40:11;;;;;;;1.70;1.30;;;24.20;53.20;;;;;;5145326;23;20462;-43
2023/03/01 06:42:34;;;;;;;2.80;1.55;;;24.30;53.40;;;;;;5145662;23;20009;-40
2023/03/01 06:44:56;;;;;;;1.80;0.90;;;24.20;53.30;;;;;;5145188;23;20031;-44
2023/03/01 06:47:18;;;;;;;2.42;1.42;;;24.20;53.70;;;;;;5132051;23;20023;-44
2023/03/01 06:49:41;;;;;;;3.05;1.40;;;24.20;53.60;;;;;;5144197;23;20031;-41
2023/03/01 06:52:04;;;;;;;2.45;1.20;;;24.20;53.60;;;;;;5146211;23;20032;-45
2023/03/01 06:54:26;;;;;;;2.33;1.38;;;24.10;53.60;;;;;;5144770;23;20024;-43
2023/03/01 06:56:50;;;;;;;3.15;1.45;;;24.10;53.60;;;;;;5144787;23;20013;-43
2023/03/01 06:59:12;;;;;;;2.50;1.20;;;24.10;53.60;;;;;;5145973;23;20071;-46
2023/03/01 07:01:35;;;;;;;3.28;1.25;;;24.10;53.60;;;;;;5145250;23;20016;-43
2023/03/01 07:03:57;;;;;;;3.10;1.20;;;24.00;53.40;;;;;;5143548;23;20454;-48
2023/03/01 07:06:20;;;;;;;2.60;1.35;;;24.00;53.50;;;;;;5140630;23;20020;-42
2023/03/01 07:08:42;;;;;;;2.92;1.30;;;24.00;53.60;;;;;;5135468;23;20016;-42
2023/03/01 07:11:05;;;;;;;2.22;1.30;;;23.90;53.50;;;;;;5141431;23;20023;-44
2023/03/01 07:13:28;;;;;;;3.20;1.77;;;23.90;53.50;;;;;;5134080;23;20055;-47
2023/03/01 07:15:51;;;;;;;3.28;1.45;;;23.80;53.40;;;;;;5142510;23;20025;-43
2023/03/01 07:18:13;;;;;;;2.72;1.30;;;23.80;53.80;;;;;;5142112;23;20024;-46
2023/03/01 07:20:36;;;;;;;3.47;1.67;;;23.70;53.60;;;;;;5142805;23;20021;-44
2023/03/01 07:22:58;;;;;;;2.60;1.42;;;23.60;53.70;;;;;;5134884;23;20071;-43
2023/03/01 07:25:21;;;;;;;3.63;1.60;;;23.60;54.10;;;;;;5143568;23;20513;-41
2023/03/01 07:27:43;;;;;;;3.03;1.42;;;23.50;54.00;;;;;;5142351;23;20402;-48
2023/03/01 07:30:06;;;;;;;3.97;1.63;;;23.50;54.20;;;;;;5142918;23;20028;-43
2023/03/01 07:32:29;;;;;;;3.63;2.20;;;23.40;54.30;;;;;;5141265;23;20017;-43
2023/03/01 07:34:52;;;;;;;2.42;1.58;;;23.40;54.50;;;;;;5141115;23;20103;-45
2023/03/01 07:37:15;;;;;;;4.03;1.73;;;23.30;54.50;;;;;;5142266;23;20065;-47
2023/03/01 07:39:37;;;;;;;4.50;1.98;;;23.20;54.60;;;;;;5142686;23;20479;-43
2023/03/01 07:42:00;;;;;;;2.60;1.67;;;23.10;54.80;;;;;;5141488;23;20023;-43
2023/03/01 07:44:23;;;;;;;5.85;2.30;;;23.10;54.80;;;;;;5141609;23;20095;-48
2023/03/01 07:46:45;;;;;;;4.70;1.95;;;23.00;55.00;;;;;;5140932;23;20580;-47
2023/03/01 07:49:08;;;;;;;5.82;1.73;;;22.90;55.00;;;;;;5141974;23;20238;-41
2023/03/01 07:51:30;;;;;;;3.30;1.50;;;22.90;55.20;;;;;;5143089;23;20013;-42
2023/03/01 07:53:53;;;;;;;3.53;1.80;;;22.80;55.30;;;;;;5140502;23;20024;-44
2023/03/01 07:56:18;;;;;;;2.78;1.55;;;22.80;55.40;;;;;;5143262;23;20073;-41
2023/03/01 07:58:42;;;;;;;6.18;2.17;;;22.70;55.30;;;;;;5142844;23;20103;-41
2023/03/01 08:01:06;;;;;;;4.93;2.10;;;22.60;55.50;;;;;;5142532;23;20355;-42
2023/03/01 08:03:28;;;;;;;;;;;22.60;55.80;;;;;;5140527;23;20047;-47
2023/03/01 08:05:51;;;;;;;2.67;1.50;;;22.50;56.20;;;;;;5141382;23;19908;-42
2023/03/01 08:08:13;;;;;;;4.55;2.40;;;22.50;56.20;;;;;;5141281;23;20016;-44
2023/03/01 08:10:37;;;;;;;5.20;2.97;;;22.50;55.90;;;;;;5143593;23;20020;-45
2023/03/01 08:12:59;;;;;;;5.65;3.85;;;22.40;56.00;;;;;;5142374;23;20012;-45
2023/03/01 08:15:21;;;;;;;5.10;3.80;;;22.40;56.20;;;;;;5133338;23;20079;-43
2023/03/01 08:17:44;;;;;;;6.57;4.85;;;22.30;56.20;;;;;;5140324;23;20024;-41
2023/03/01 08:20:07;;;;;;;6.45;5.20;;;22.20;56.50;;;;;;5133691;23;20021;-44
2023/03/01 08:22:30;;;;;;;6.57;5.53;;;22.20;56.40;;;;;;5142764;23;20422;-47
2023/03/01 08:24:52;;;;;;;8.82;6.43;;;22.20;56.50;;;;;;5142628;23;20020;-44
2023/03/01 08:27:16;;;;;;;7.57;6.13;;;22.10;56.50;;;;;;5141520;23;20020;-43
2023/03/01 08:29:39;;;;;;;7.53;6.28;;;22.10;56.60;;;;;;5140858;23;20020;-42
2023/03/01 08:32:01;;;;;;;8.27;6.38;;;22.10;56.50;;;;;;5141015;23;20183;-45
2023/03/01 08:34:24;;;;;;;7.72;6.35;;;22.00;56.40;;;;;;5140162;23;20024;-46
2023/03/01 08:36:47;;;;;;;8.80;7.43;;;22.00;56.50;;;;;;5141343;23;20070;-45
2023/03/01 08:39:11;;;;;;;10.20;7.75;;;21.90;56.60;;;;;;5139710;23;20035;-42
2023/03/01 08:41:34;;;;;;;10.77;7.75;;;21.80;56.80;;;;;;5141927;23;20016;-44
2023/03/01 08:44:00;;;;;;;10.65;8.68;;;21.80;56.80;;;;;;5140995;23;20446;-47
2023/03/01 08:46:22;;;;;;;10.60;8.70;;;21.70;56.90;;;;;;5141599;23;20017;-42
2023/03/01 08:48:45;;;;;;;10.15;8.40;;;21.70;56.80;;;;;;5140113;23;20024;-43
2023/03/01 08:51:13;;;;;;;10.80;9.57;;;21.60;56.90;;;;;;5140837;23;20016;-43
2023/03/01 08:53:35;;;;;;;13.52;8.23;;;21.60;56.90;;;;;;5140554;23;20339;-42
2023/03/01 08:56:02;;;;;;;9.55;8.35;;;21.60;58.30;;;;;;5140164;23;20047;-45
2023/03/01 08:58:24;;;;;;;9.63;7.85;;;21.60;58.30;;;;;;5132221;23;20051;-42
2023/03/01 09:00:47;;;;;;;11.93;8.10;;;21.70;58.80;;;;;;5140326;23;20414;-40
2023/03/01 09:03:09;;;;;;;11.60;8.70;;;21.80;59.40;;;;;;5139760;23;20344;-42
2023/03/01 09:05:36;;;;;;;10.73;7.93;;;21.90;59.80;;;;;;5140308;23;20017;-47
2023/03/01 09:07:59;;;;;;;7.88;7.07;;;22.00;60.20;;;;;;5133632;23;20066;-48
2023/03/01 09:10:21;;;;;;;7.63;6.82;;;22.20;60.40;;;;;;5140778;23;20021;-43
2023/03/01 09:12:43;;;;;;;8.93;6.50;;;22.30;61.60;;;;;;5141148;23;20021;-44
2023/03/01 09:15:06;;;;;;;8.13;6.32;;;22.40;61.20;;;;;;5141367;23;20051;-43
2023/03/01 09:17:29;;;;;;;18.20;6.95;;;22.50;61.40;;;;;;5136388;23;20048;-47
2023/03/01 09:19:51;;;;;;;10.95;6.35;;;22.60;62.10;;;;;;5131666;23;20371;-49
2023/03/01 09:22:14;;;;;;;9.30;5.57;;;22.80;62.10;;;;;;5139950;23;20008;-43
2023/03/01 09:24:36;;;;;;;8.90;5.25;;;22.80;62.50;;;;;;5140796;23;20016;-44
2023/03/01 09:26:59;;;;;;;11.43;6.05;;;22.90;62.50;;;;;;5139069;23;20088;-43
2023/03/01 09:29:21;;;;;;;8.80;4.93;;;23.00;62.50;;;;;;5138283;23;20362;-46
2023/03/01 09:31:44;;;;;;;8.10;5.20;;;23.00;62.70;;;;;;5139379;23;20312;-43
2023/03/01 09:34:07;;;;;;;7.10;4.75;;;23.10;62.70;;;;;;5138887;23;20024;-44
2023/03/01 09:36:30;;;;;;;5.28;4.15;;;23.20;62.90;;;;;;5137096;23;20074;-44
2023/03/01 09:38:53;;;;;;;7.28;3.85;;;23.20;62.90;;;;;;5135325;23;20024;-44
2023/03/01 09:41:26;;;;;;;6.03;3.30;;;23.30;63.00;;;;;;5131384;23;20097;-45
2023/03/01 09:43:54;;;;;;;6.40;3.40;;;23.30;63.00;;;;;;5139456;23;20021;-44
2023/03/01 09:46:16;;;;;;;7.25;3.50;;;23.40;63.00;;;;;;5139065;23;20079;-42
2023/03/01 09:49:11;;;;;;;4.40;2.95;;;23.50;63.20;;;;;;5132224;23;20023;-49
2023/03/01 09:51:36;;;;;;;6.85;3.25;;;23.60;63.00;;;;;;5138334;23;20411;-45
2023/03/01 09:54:00;;;;;;;4.50;3.10;;;23.60;63.20;;;;;;5136861;23;20063;-45
2023/03/01 09:57:05;;;;;;;17.67;3.38;;;23.70;63.30;;;;;;5135459;23;20557;-43
2023/03/01 09:59:51;;;;;;;14.23;3.40;;;23.80;63.40;;;;;;5030266;23;20027;-51
2023/03/01 10:02:32;;;;;;;6.57;2.70;;;23.90;64.10;;;;;;5121219;23;20017;-42
2023/03/01 10:05:22;;;;;;;6.45;2.55;;;23.90;63.50;;;;;;5130053;23;20526;-43
2023/03/01 10:07:49;;;;;;;7.70;2.67;;;23.90;63.40;;;;;;5134110;23;20052;-45
2023/03/01 10:10:34;;;;;;;10.52;3.35;;;23.90;63.60;;;;;;5131862;23;20461;-41
2023/03/01 10:12:56;;;;;;;;;;;23.90;63.80;;;;;;5134295;23;20021;-44
2023/03/01 10:15:34;;;;;;;12.15;3.10;;;23.90;63.50;;;;;;5134797;23;19989;-42
2023/03/01 10:18:22;;;;;;;15.15;4.22;;;23.90;63.50;;;;;;5134784;23;20179;-44
2023/03/01 10:21:08;;;;;;;13.38;4.80;;;24.00;64.00;;;;;;5125020;23;20555;-44
2023/03/01 10:23:36;;;;;;;11.43;4.22;;;24.00;64.10;;;;;;5134312;23;20020;-45
2023/03/01 10:26:42;;;;;;;14.82;3.95;;;24.00;64.00;;;;;;5135933;23;20016;-43
2023/03/01 10:29:09;;;;;;;10.65;3.88;;;24.10;64.10;;;;;;5118559;23;20409;-43
2023/03/01 10:31:46;;;;;;;12.70;3.83;;;24.10;64.10;;;;;;5136173;23;20023;-46
2023/03/01 10:34:18;;;;;;;10.43;3.67;;;24.10;64.10;;;;;;5131979;23;20363;-48
2023/03/01 10:36:43;;;;;;;12.27;3.35;;;24.20;64.20;;;;;;5133924;23;20017;-48
2023/03/01 10:39:19;;;;;;;11.13;3.83;;;24.20;64.20;;;;;;5124085;23;20020;-45
2023/03/01 10:42:00;;;;;;;8.88;3.53;;;24.30;64.30;;;;;;5124253;23;20067;-47
2023/03/01 10:44:49;;;;;;;7.30;3.35;;;24.30;64.40;;;;;;5136141;23;20009;-49
2023/03/01 10:47:16;;;;;;;5.88;2.58;;;24.40;64.60;;;;;;5135698;23;20435;-49
2023/03/01 10:49:39;;;;;;;8.43;2.70;;;24.40;64.50;;;;;;5136208;23;20016;-47
2023/03/01 10:52:22;;;;;;;7.82;2.55;;;24.40;64.40;;;;;;5135872;23;20016;-46
2023/03/01 10:54:53;;;;;;;8.63;2.92;;;24.50;64.60;;;;;;5128051;23;20032;-50
2023/03/01 10:57:30;;;;;;;5.95;2.30;;;24.60;64.50;;;;;;5134807;23;20761;-43
2023/03/01 11:00:24;;;;;;;6.80;2.22;;;24.60;64.40;;;;;;5133722;23;20021;-46
2023/03/01 11:03:01;;;;;;;6.80;2.60;;;24.60;64.40;;;;;;5135076;23;20139;-44
2023/03/01 11:05:25;;;;;;;5.93;2.20;;;24.70;64.40;;;;;;5135184;23;20016;-52
2023/03/01 11:07:58;;;;;;;3.83;1.90;;;24.70;64.40;;;;;;5135396;23;20110;-48
2023/03/01 11:10:24;;;;;;;5.00;1.92;;;24.80;64.40;;;;;;5135827;23;20016;-46
2023/03/01 11:12:52;;;;;;;8.15;2.40;;;24.80;64.40;;;;;;5132709;23;20020;-50
2023/03/01 11:15:26;;;;;;;4.80;2.15;;;24.80;64.50;;;;;;5134096;23;20024;-46
2023/03/01 11:17:50;;;;;;;5.95;1.95;;;24.90;64.30;;;;;;5135061;23;20518;-50
2023/03/01 11:20:15;;;;;;;6.65;2.42;;;24.90;64.30;;;;;;5134313;23;20476;-45
2023/03/01 11:22:42;;;;;;;5.95;1.88;;;24.90;64.30;;;;;;5135460;23;20029;-45
2023/03/01 11:25:04;;;;;;;6.25;2.20;;;25.00;64.30;;;;;;5123055;23;20017;-50
2023/03/01 11:27:31;;;;;;;7.07;1.90;;;25.00;64.30;;;;;;5134437;23;20024;-50
2023/03/01 11:30:27;;;;;;;4.00;1.70;;;25.00;64.40;;;;;;5135997;23;20142;-50
2023/03/01 11:33:06;;;;;;;4.15;1.60;;;25.00;64.30;;;;;;5135615;23;20043;-45
2023/03/01 11:35:30;;;;;;;5.50;1.95;;;25.10;64.50;;;;;;5134059;23;20111;-45
2023/03/01 11:37:54;;;;;;;;;;;25.10;64.40;;;;;;5134979;23;20012;-46
2023/03/01 11:40:34;;;;;;;14.52;2.28;;;25.10;64.20;;;;;;5137329;23;19979;-46
2023/03/01 11:43:06;;;;;;;7.63;1.65;;;25.20;64.50;;;;;;5137297;23;20020;-51
2023/03/01 11:45:43;;;;;;;15.93;2.95;;;25.20;64.50;;;;;;5136513;23;20089;-45
2023/03/01 11:48:25;;;;;;;31.13;2.90;;;25.20;64.60;;;;;;5134061;23;20027;-50
2023/03/01 11:50:49;;;;;;;11.10;2.35;;;25.30;64.60;;;;;;5134225;23;20024;-47
2023/03/01 11:53:22;;;;;;;;;;;25.30;64.50;;;;;;5136346;22;20079;-42
2023/03/01 11:55:56;;;;;;;10.57;2.25;;;25.30;65.10;;;;;;5126970;23;19916;-41
2023/03/01 11:58:54;;;;;;;9.38;1.92;;;25.40;64.50;;;;;;5136693;23;20008;-47
2023/03/01 12:01:16;;;;;;;4.68;1.63;;;25.40;64.50;;;;;;5132997;23;20426;-45
2023/03/01 12:03:55;;;;;;;5.00;1.58;;;25.40;64.40;;;;;;5131210;23;20013;-48
2023/03/01 12:06:49;;;;;;;3.72;1.50;;;25.50;64.50;;;;;;5142028;23;20021;-43
2023/03/01 12:09:22;;;;;;;4.38;1.75;;;25.50;64.40;;;;;;5132962;23;20104;-43
2023/03/01 12:12:06;;;;;;;3.47;1.38;;;25.50;64.50;;;;;;5144543;22;20580;-46
2023/03/01 12:14:59;;;;;;;5.37;1.73;;;25.60;64.50;;;;;;5142871;23;20024;-44
2023/03/01 12:17:46;;;;;;;8.00;1.45;;;25.60;64.50;;;;;;5141763;23;20030;-42
2023/03/01 12:20:23;;;;;;;5.25;1.40;;;25.60;64.50;;;;;;5144411;23;20040;-43
2023/03/01 12:22:57;;;;;;;3.40;1.40;;;25.60;64.50;;;;;;5143414;23;20829;-45
2023/03/01 12:25:39;;;;;;;2.80;1.30;;;25.60;64.60;;;;;;5144727;23;20095;-45
2023/03/01 12:28:38;;;;;;;4.03;1.23;;;25.70;64.70;;;;;;5145370;23;20016;-49
2023/03/01 12:31:20;;;;;;;3.67;1.20;;;25.60;64.70;;;;;;5140241;23;20354;-50
2023/03/01 12:34:32;;;;;;;3.65;1.42;;;25.70;64.60;;;;;;5135696;23;20421;-47
2023/03/01 12:37:17;;;;;;;1.63;0.85;;;25.70;64.60;;;;;;5080815;23;20112;-45
2023/03/01 12:40:04;;;;;;;3.10;1.60;;;25.70;64.70;;;;;;5132126;23;20032;-43
2023/03/01 12:42:38;;;;;;;2.22;1.08;;;25.70;65.00;;;;;;5142418;23;20049;-49
2023/03/01 12:45:32;;;;;;;2.80;1.30;;;25.70;65.00;;;;;;5131469;23;20017;-45
2023/03/01 12:48:26;;;;;;;2.45;1.35;;;25.80;65.20;;;;;;5144377;23;20199;-44
2023/03/01 12:50:57;;;;;;;4.57;1.30;;;25.80;65.40;;;;;;5110810;23;20023;-43